sensor_id;sensor_type;location;lat;lon;timestamp;P1;durP1;ratioP1;P2;durP2;ratioP2
43345;SDS011;28937;51.160;4.146;2023-05-07T00:01:43;9.07;;;5.28;;
43345;SDS011;28937;51.160;4.146;2023-05-07T00:04:10;9.07;;;5.35;;
43345;SDS011;28937;51.160;4.146;2023-05-07T00:06:35;9.73;;;5.97;;
43345;SDS011;28937;51.160;4.146;2023-05-07T00:09:01;7.50;;;5.45;;
43345;SDS011;28937;51.160;4.146;2023-05-07T00:11:27;11.00;;;6.57;;
43345;SDS011;28937;51.160;4.146;2023-05-07T00:13:53;11.18;;;6.80;;
43345;SDS011;28937;51.160;4.146;2023-05-07T00:16:19;13.50;;;6.97;;
43345;SDS011;28937;51.160;4.146;2023-05-07T00:18:45;11.45;;;6.47;;
43345;SDS011;28937;51.160;4.146;2023-05-07T00:21:11;11.60;;;5.47;;
43345;SDS011;28937;51.160;4.146;2023-05-07T00:23:36;11.65;;;5.82;;
43345;SDS011;28937;51.160;4.146;2023-05-07T00:26:03;8.32;;;5.82;;
43345;SDS011;28937;51.160;4.146;2023-05-07T00:28:28;10.60;;;5.93;;
43345;SDS011;28937;51.160;4.146;2023-05-07T00:30:54;11.63;;;6.55;;
43345;SDS011;28937;51.160;4.146;2023-05-07T00:33:20;12.85;;;6.03;;
43345;SDS011;28937;51.160;4.146;2023-05-07T00:35:45;10.52;;;6.03;;
43345;SDS011;28937;51.160;4.146;2023-05-07T00:38:11;9.80;;;6.30;;
43345;SDS011;28937;51.160;4.146;2023-05-07T00:40:37;8.70;;;5.93;;
43345;SDS011;28937;51.160;4.146;2023-05-07T00:43:02;8.52;;;6.18;;
43345;SDS011;28937;51.160;4.146;2023-05-07T00:45:28;10.57;;;6.10;;
43345;SDS011;28937;51.160;4.146;2023-05-07T00:47:58;11.65;;;6.85;;
43345;SDS011;28937;51.160;4.146;2023-05-07T00:50:26;11.05;;;6.85;;
43345;SDS011;28937;51.160;4.146;2023-05-07T00:52:52;10.05;;;6.88;;
43345;SDS011;28937;51.160;4.146;2023-05-07T00:55:19;9.50;;;6.50;;
43345;SDS011;28937;51.160;4.146;2023-05-07T00:57:45;11.20;;;6.60;;
43345;SDS011;28937;51.160;4.146;2023-05-07T01:00:11;8.60;;;7.35;;
43345;SDS011;28937;51.160;4.146;2023-05-07T01:02:40;9.07;;;6.50;;
43345;SDS011;28937;51.160;4.146;2023-05-07T01:05:07;9.23;;;6.35;;
43345;SDS011;28937;51.160;4.146;2023-05-07T01:07:36;9.80;;;6.45;;
43345;SDS011;28937;51.160;4.146;2023-05-07T01:10:04;8.32;;;5.90;;
43345;SDS011;28937;51.160;4.146;2023-05-07T01:12:31;9.40;;;6.13;;
43345;SDS011;28937;51.160;4.146;2023-05-07T01:14:57;10.13;;;7.05;;
43345;SDS011;28937;51.160;4.146;2023-05-07T01:17:23;8.82;;;6.22;;
43345;SDS011;28937;51.160;4.146;2023-05-07T01:19:49;8.60;;;5.85;;
43345;SDS011;28937;51.160;4.146;2023-05-07T01:22:18;12.32;;;6.38;;
43345;SDS011;28937;51.160;4.146;2023-05-07T01:24:53;9.30;;;6.07;;
43345;SDS011;28937;51.160;4.146;2023-05-07T01:27:21;9.52;;;6.57;;
43345;SDS011;28937;51.160;4.146;2023-05-07T01:29:46;11.93;;;7.25;;
43345;SDS011;28937;51.160;4.146;2023-05-07T01:32:12;11.43;;;7.00;;
43345;SDS011;28937;51.160;4.146;2023-05-07T01:34:39;11.70;;;6.95;;
43345;SDS011;28937;51.160;4.146;2023-05-07T01:37:05;11.52;;;7.28;;
43345;SDS011;28937;51.160;4.146;2023-05-07T01:39:31;10.38;;;7.18;;
43345;SDS011;28937;51.160;4.146;2023-05-07T01:41:57;11.13;;;7.43;;
43345;SDS011;28937;51.160;4.146;2023-05-07T01:44:24;8.27;;;7.30;;
43345;SDS011;28937;51.160;4.146;2023-05-07T01:46:50;10.57;;;7.25;;
43345;SDS011;28937;51.160;4.146;2023-05-07T01:49:16;10.75;;;7.70;;
43345;SDS011;28937;51.160;4.146;2023-05-07T01:51:42;9.95;;;8.00;;
43345;SDS011;28937;51.160;4.146;2023-05-07T01:54:09;12.73;;;7.53;;
43345;SDS011;28937;51.160;4.146;2023-05-07T01:56:34;11.48;;;8.25;;
43345;SDS011;28937;51.160;4.146;2023-05-07T01:59:00;9.45;;;7.55;;
43345;SDS011;28937;51.160;4.146;2023-05-07T02:01:26;10.88;;;7.82;;
43345;SDS011;28937;51.160;4.146;2023-05-07T02:03:52;8.18;;;7.32;;
43345;SDS011;28937;51.160;4.146;2023-05-07T02:06:18;15.10;;;8.00;;
43345;SDS011;28937;51.160;4.146;2023-05-07T02:08:44;11.52;;;7.70;;
43345;SDS011;28937;51.160;4.146;2023-05-07T02:11:11;11.65;;;8.00;;
43345;SDS011;28937;51.160;4.146;2023-05-07T02:13:36;9.88;;;8.07;;
43345;SDS011;28937;51.160;4.146;2023-05-07T02:16:02;13.63;;;8.25;;
43345;SDS011;28937;51.160;4.146;2023-05-07T02:18:28;12.35;;;8.23;;
43345;SDS011;28937;51.160;4.146;2023-05-07T02:20:53;12.55;;;8.50;;
43345;SDS011;28937;51.160;4.146;2023-05-07T02:23:19;11.45;;;8.23;;
43345;SDS011;28937;51.160;4.146;2023-05-07T02:25:45;9.65;;;7.00;;
43345;SDS011;28937;51.160;4.146;2023-05-07T02:28:11;8.98;;;7.13;;
43345;SDS011;28937;51.160;4.146;2023-05-07T02:30:36;12.63;;;8.10;;
43345;SDS011;28937;51.160;4.146;2023-05-07T02:33:02;8.95;;;7.53;;
43345;SDS011;28937;51.160;4.146;2023-05-07T02:35:28;13.13;;;8.48;;
43345;SDS011;28937;51.160;4.146;2023-05-07T02:37:54;10.73;;;8.13;;
43345;SDS011;28937;51.160;4.146;2023-05-07T02:40:19;11.80;;;8.73;;
43345;SDS011;28937;51.160;4.146;2023-05-07T02:42:45;11.23;;;8.13;;
43345;SDS011;28937;51.160;4.146;2023-05-07T02:45:11;10.05;;;7.88;;
43345;SDS011;28937;51.160;4.146;2023-05-07T02:47:36;12.52;;;7.88;;
43345;SDS011;28937;51.160;4.146;2023-05-07T02:50:02;9.98;;;7.97;;
43345;SDS011;28937;51.160;4.146;2023-05-07T02:52:28;11.55;;;7.78;;
43345;SDS011;28937;51.160;4.146;2023-05-07T02:54:54;10.05;;;7.95;;
43345;SDS011;28937;51.160;4.146;2023-05-07T02:57:19;12.55;;;7.88;;
43345;SDS011;28937;51.160;4.146;2023-05-07T02:59:45;13.95;;;7.70;;
43345;SDS011;28937;51.160;4.146;2023-05-07T03:02:11;9.30;;;7.75;;
43345;SDS011;28937;51.160;4.146;2023-05-07T03:04:36;12.30;;;7.68;;
43345;SDS011;28937;51.160;4.146;2023-05-07T03:07:02;13.77;;;8.13;;
43345;SDS011;28937;51.160;4.146;2023-05-07T03:09:28;10.73;;;7.65;;
43345;SDS011;28937;51.160;4.146;2023-05-07T03:11:53;12.15;;;8.43;;
43345;SDS011;28937;51.160;4.146;2023-05-07T03:14:19;15.27;;;8.18;;
43345;SDS011;28937;51.160;4.146;2023-05-07T03:16:45;10.25;;;8.02;;
43345;SDS011;28937;51.160;4.146;2023-05-07T03:19:10;13.57;;;8.65;;
43345;SDS011;28937;51.160;4.146;2023-05-07T03:21:36;12.48;;;8.70;;
43345;SDS011;28937;51.160;4.146;2023-05-07T03:24:02;10.32;;;8.13;;
43345;SDS011;28937;51.160;4.146;2023-05-07T03:26:27;10.50;;;8.00;;
43345;SDS011;28937;51.160;4.146;2023-05-07T03:28:54;10.40;;;8.48;;
43345;SDS011;28937;51.160;4.146;2023-05-07T03:31:20;10.15;;;8.13;;
43345;SDS011;28937;51.160;4.146;2023-05-07T03:33:49;10.15;;;7.32;;
43345;SDS011;28937;51.160;4.146;2023-05-07T03:36:19;10.15;;;7.68;;
43345;SDS011;28937;51.160;4.146;2023-05-07T03:38:45;9.13;;;7.50;;
43345;SDS011;28937;51.160;4.146;2023-05-07T03:41:11;11.68;;;7.85;;
43345;SDS011;28937;51.160;4.146;2023-05-07T03:43:37;9.00;;;7.55;;
43345;SDS011;28937;51.160;4.146;2023-05-07T03:46:03;9.02;;;7.60;;
43345;SDS011;28937;51.160;4.146;2023-05-07T03:48:28;13.27;;;8.50;;
43345;SDS011;28937;51.160;4.146;2023-05-07T03:50:54;11.23;;;7.88;;
43345;SDS011;28937;51.160;4.146;2023-05-07T03:53:20;11.15;;;8.18;;
43345;SDS011;28937;51.160;4.146;2023-05-07T03:55:46;11.38;;;8.88;;
43345;SDS011;28937;51.160;4.146;2023-05-07T03:58:11;10.45;;;9.38;;
43345;SDS011;28937;51.160;4.146;2023-05-07T04:00:37;11.57;;;8.38;;
43345;SDS011;28937;51.160;4.146;2023-05-07T04:03:03;11.98;;;9.35;;
43345;SDS011;28937;51.160;4.146;2023-05-07T04:05:30;10.38;;;9.30;;
43345;SDS011;28937;51.160;4.146;2023-05-07T04:07:57;13.80;;;9.98;;
43345;SDS011;28937;51.160;4.146;2023-05-07T04:10:23;14.43;;;9.75;;
43345;SDS011;28937;51.160;4.146;2023-05-07T04:12:48;11.32;;;9.52;;
43345;SDS011;28937;51.160;4.146;2023-05-07T04:15:14;13.07;;;9.93;;
43345;SDS011;28937;51.160;4.146;2023-05-07T04:17:40;12.82;;;10.27;;
43345;SDS011;28937;51.160;4.146;2023-05-07T04:20:08;14.70;;;10.32;;
43345;SDS011;28937;51.160;4.146;2023-05-07T04:22:35;12.70;;;9.68;;
43345;SDS011;28937;51.160;4.146;2023-05-07T04:25:01;13.32;;;10.90;;
43345;SDS011;28937;51.160;4.146;2023-05-07T04:27:27;13.40;;;9.93;;
43345;SDS011;28937;51.160;4.146;2023-05-07T04:29:53;11.73;;;9.85;;
43345;SDS011;28937;51.160;4.146;2023-05-07T04:32:21;13.35;;;10.43;;
43345;SDS011;28937;51.160;4.146;2023-05-07T04:34:47;12.82;;;9.95;;
43345;SDS011;28937;51.160;4.146;2023-05-07T04:37:13;14.85;;;11.05;;
43345;SDS011;28937;51.160;4.146;2023-05-07T04:39:38;12.55;;;10.05;;
43345;SDS011;28937;51.160;4.146;2023-05-07T04:42:04;13.10;;;10.13;;
43345;SDS011;28937;51.160;4.146;2023-05-07T04:44:32;11.63;;;10.43;;
43345;SDS011;28937;51.160;4.146;2023-05-07T04:46:58;14.40;;;10.85;;
43345;SDS011;28937;51.160;4.146;2023-05-07T04:49:23;13.65;;;11.13;;
43345;SDS011;28937;51.160;4.146;2023-05-07T04:51:49;13.02;;;10.23;;
43345;SDS011;28937;51.160;4.146;2023-05-07T04:54:15;13.20;;;11.32;;
43345;SDS011;28937;51.160;4.146;2023-05-07T04:56:40;13.73;;;11.15;;
43345;SDS011;28937;51.160;4.146;2023-05-07T04:59:06;13.52;;;11.77;;
43345;SDS011;28937;51.160;4.146;2023-05-07T05:01:32;17.55;;;12.32;;
43345;SDS011;28937;51.160;4.146;2023-05-07T05:03:58;16.77;;;12.38;;
43345;SDS011;28937;51.160;4.146;2023-05-07T05:06:25;18.08;;;11.85;;
43345;SDS011;28937;51.160;4.146;2023-05-07T05:08:50;16.85;;;12.77;;
43345;SDS011;28937;51.160;4.146;2023-05-07T05:11:16;18.73;;;13.25;;
43345;SDS011;28937;51.160;4.146;2023-05-07T05:13:42;16.80;;;12.38;;
43345;SDS011;28937;51.160;4.146;2023-05-07T05:16:07;17.92;;;11.45;;
43345;SDS011;28937;51.160;4.146;2023-05-07T05:18:33;15.52;;;11.90;;
43345;SDS011;28937;51.160;4.146;2023-05-07T05:20:59;12.52;;;11.10;;
43345;SDS011;28937;51.160;4.146;2023-05-07T05:23:24;12.63;;;11.35;;
43345;SDS011;28937;51.160;4.146;2023-05-07T05:25:54;12.45;;;11.15;;
43345;SDS011;28937;51.160;4.146;2023-05-07T05:28:21;12.82;;;10.88;;
43345;SDS011;28937;51.160;4.146;2023-05-07T05:30:47;13.85;;;10.60;;
43345;SDS011;28937;51.160;4.146;2023-05-07T05:33:12;12.23;;;10.93;;
43345;SDS011;28937;51.160;4.146;2023-05-07T05:35:38;12.98;;;10.95;;
43345;SDS011;28937;51.160;4.146;2023-05-07T05:38:03;12.85;;;11.13;;
43345;SDS011;28937;51.160;4.146;2023-05-07T05:40:29;14.35;;;11.05;;
43345;SDS011;28937;51.160;4.146;2023-05-07T05:42:56;14.65;;;10.88;;
43345;SDS011;28937;51.160;4.146;2023-05-07T05:45:21;12.40;;;11.10;;
43345;SDS011;28937;51.160;4.146;2023-05-07T05:47:47;12.10;;;10.88;;
43345;SDS011;28937;51.160;4.146;2023-05-07T05:50:12;15.05;;;11.32;;
43345;SDS011;28937;51.160;4.146;2023-05-07T05:52:38;12.68;;;11.40;;
43345;SDS011;28937;51.160;4.146;2023-05-07T05:55:04;14.32;;;11.15;;
43345;SDS011;28937;51.160;4.146;2023-05-07T05:57:30;12.68;;;11.20;;
43345;SDS011;28937;51.160;4.146;2023-05-07T05:59:56;12.30;;;11.00;;
43345;SDS011;28937;51.160;4.146;2023-05-07T06:02:21;14.40;;;10.70;;
43345;SDS011;28937;51.160;4.146;2023-05-07T06:04:47;12.35;;;11.00;;
43345;SDS011;28937;51.160;4.146;2023-05-07T06:07:12;12.90;;;11.23;;
43345;SDS011;28937;51.160;4.146;2023-05-07T06:09:38;12.48;;;11.23;;
43345;SDS011;28937;51.160;4.146;2023-05-07T06:12:03;12.52;;;10.93;;
43345;SDS011;28937;51.160;4.146;2023-05-07T06:14:29;13.63;;;10.98;;
43345;SDS011;28937;51.160;4.146;2023-05-07T06:16:55;14.23;;;11.30;;
43345;SDS011;28937;51.160;4.146;2023-05-07T06:19:21;15.50;;;10.98;;
43345;SDS011;28937;51.160;4.146;2023-05-07T06:21:48;13.00;;;11.38;;
43345;SDS011;28937;51.160;4.146;2023-05-07T06:24:15;14.32;;;11.13;;
43345;SDS011;28937;51.160;4.146;2023-05-07T06:26:40;12.00;;;10.80;;
43345;SDS011;28937;51.160;4.146;2023-05-07T06:29:06;11.82;;;10.63;;
43345;SDS011;28937;51.160;4.146;2023-05-07T06:31:31;11.38;;;10.23;;
43345;SDS011;28937;51.160;4.146;2023-05-07T06:33:57;12.63;;;10.32;;
43345;SDS011;28937;51.160;4.146;2023-05-07T06:36:24;10.82;;;9.73;;
43345;SDS011;28937;51.160;4.146;2023-05-07T06:38:49;11.75;;;10.60;;
43345;SDS011;28937;51.160;4.146;2023-05-07T06:41:15;12.80;;;10.85;;
43345;SDS011;28937;51.160;4.146;2023-05-07T06:43:40;12.68;;;9.93;;
43345;SDS011;28937;51.160;4.146;2023-05-07T06:46:06;11.35;;;9.20;;
43345;SDS011;28937;51.160;4.146;2023-05-07T06:48:32;10.73;;;9.00;;
43345;SDS011;28937;51.160;4.146;2023-05-07T06:50:57;11.02;;;8.73;;
43345;SDS011;28937;51.160;4.146;2023-05-07T06:53:23;7.82;;;6.15;;
43345;SDS011;28937;51.160;4.146;2023-05-07T06:55:49;8.57;;;4.00;;
43345;SDS011;28937;51.160;4.146;2023-05-07T06:58:15;5.15;;;2.90;;
43345;SDS011;28937;51.160;4.146;2023-05-07T07:00:40;7.57;;;4.43;;
43345;SDS011;28937;51.160;4.146;2023-05-07T07:03:06;7.22;;;3.60;;
43345;SDS011;28937;51.160;4.146;2023-05-07T07:05:32;4.70;;;2.88;;
43345;SDS011;28937;51.160;4.146;2023-05-07T07:07:58;6.82;;;3.00;;
43345;SDS011;28937;51.160;4.146;2023-05-07T07:10:23;8.23;;;5.28;;
43345;SDS011;28937;51.160;4.146;2023-05-07T07:12:49;5.53;;;4.60;;
43345;SDS011;28937;51.160;4.146;2023-05-07T07:15:15;6.90;;;3.88;;
43345;SDS011;28937;51.160;4.146;2023-05-07T07:17:41;8.43;;;4.03;;
43345;SDS011;28937;51.160;4.146;2023-05-07T07:20:07;8.27;;;5.22;;
43345;SDS011;28937;51.160;4.146;2023-05-07T07:22:33;5.53;;;4.07;;
43345;SDS011;28937;51.160;4.146;2023-05-07T07:24:59;9.48;;;5.68;;
43345;SDS011;28937;51.160;4.146;2023-05-07T07:27:25;8.98;;;6.18;;
43345;SDS011;28937;51.160;4.146;2023-05-07T07:29:50;9.93;;;5.32;;
43345;SDS011;28937;51.160;4.146;2023-05-07T07:32:16;7.85;;;4.90;;
43345;SDS011;28937;51.160;4.146;2023-05-07T07:34:42;9.05;;;5.97;;
43345;SDS011;28937;51.160;4.146;2023-05-07T07:37:07;9.63;;;5.53;;
43345;SDS011;28937;51.160;4.146;2023-05-07T07:39:33;7.50;;;5.20;;
43345;SDS011;28937;51.160;4.146;2023-05-07T07:41:59;10.43;;;5.88;;
43345;SDS011;28937;51.160;4.146;2023-05-07T07:44:24;9.75;;;4.82;;
43345;SDS011;28937;51.160;4.146;2023-05-07T07:46:51;9.40;;;4.70;;
43345;SDS011;28937;51.160;4.146;2023-05-07T07:49:16;7.97;;;3.80;;
43345;SDS011;28937;51.160;4.146;2023-05-07T07:51:42;8.88;;;3.92;;
43345;SDS011;28937;51.160;4.146;2023-05-07T07:54:08;9.05;;;4.07;;
43345;SDS011;28937;51.160;4.146;2023-05-07T07:56:34;9.57;;;4.90;;
43345;SDS011;28937;51.160;4.146;2023-05-07T07:59:00;13.73;;;6.07;;
43345;SDS011;28937;51.160;4.146;2023-05-07T08:01:25;19.45;;;6.45;;
43345;SDS011;28937;51.160;4.146;2023-05-07T08:03:51;11.10;;;5.55;;
43345;SDS011;28937;51.160;4.146;2023-05-07T08:06:17;12.45;;;5.97;;
43345;SDS011;28937;51.160;4.146;2023-05-07T08:08:43;19.05;;;6.78;;
43345;SDS011;28937;51.160;4.146;2023-05-07T08:11:09;17.08;;;7.85;;
43345;SDS011;28937;51.160;4.146;2023-05-07T08:13:35;13.95;;;6.97;;
43345;SDS011;28937;51.160;4.146;2023-05-07T08:16:01;9.68;;;4.93;;
43345;SDS011;28937;51.160;4.146;2023-05-07T08:18:27;8.05;;;4.90;;
43345;SDS011;28937;51.160;4.146;2023-05-07T08:20:54;9.57;;;5.20;;
43345;SDS011;28937;51.160;4.146;2023-05-07T08:23:20;7.68;;;4.43;;
43345;SDS011;28937;51.160;4.146;2023-05-07T08:25:46;8.05;;;4.60;;
43345;SDS011;28937;51.160;4.146;2023-05-07T08:28:11;11.57;;;5.10;;
43345;SDS011;28937;51.160;4.146;2023-05-07T08:30:37;8.27;;;4.22;;
43345;SDS011;28937;51.160;4.146;2023-05-07T08:33:03;6.68;;;3.75;;
43345;SDS011;28937;51.160;4.146;2023-05-07T08:35:28;6.45;;;3.40;;
43345;SDS011;28937;51.160;4.146;2023-05-07T08:37:54;7.38;;;3.63;;
43345;SDS011;28937;51.160;4.146;2023-05-07T08:40:20;10.13;;;3.85;;
43345;SDS011;28937;51.160;4.146;2023-05-07T08:42:49;7.72;;;3.72;;
43345;SDS011;28937;51.160;4.146;2023-05-07T08:45:21;9.07;;;3.67;;
43345;SDS011;28937;51.160;4.146;2023-05-07T08:47:49;7.82;;;3.20;;
43345;SDS011;28937;51.160;4.146;2023-05-07T08:50:17;8.10;;;3.70;;
43345;SDS011;28937;51.160;4.146;2023-05-07T08:52:44;7.28;;;3.13;;
43345;SDS011;28937;51.160;4.146;2023-05-07T08:55:10;10.00;;;4.50;;
43345;SDS011;28937;51.160;4.146;2023-05-07T08:57:37;8.35;;;3.95;;
43345;SDS011;28937;51.160;4.146;2023-05-07T09:00:03;8.85;;;3.88;;
43345;SDS011;28937;51.160;4.146;2023-05-07T09:02:32;6.90;;;3.60;;
43345;SDS011;28937;51.160;4.146;2023-05-07T09:04:58;6.78;;;2.70;;
43345;SDS011;28937;51.160;4.146;2023-05-07T09:07:24;8.13;;;3.55;;
43345;SDS011;28937;51.160;4.146;2023-05-07T09:09:51;6.40;;;2.90;;
43345;SDS011;28937;51.160;4.146;2023-05-07T09:12:17;6.65;;;3.25;;
43345;SDS011;28937;51.160;4.146;2023-05-07T09:14:44;6.75;;;3.97;;
43345;SDS011;28937;51.160;4.146;2023-05-07T09:17:11;7.60;;;3.67;;
43345;SDS011;28937;51.160;4.146;2023-05-07T09:19:36;7.93;;;3.85;;
43345;SDS011;28937;51.160;4.146;2023-05-07T09:22:02;8.15;;;2.92;;
43345;SDS011;28937;51.160;4.146;2023-05-07T09:24:29;5.65;;;2.63;;
43345;SDS011;28937;51.160;4.146;2023-05-07T09:27:00;6.68;;;3.10;;
43345;SDS011;28937;51.160;4.146;2023-05-07T09:29:27;7.25;;;2.90;;
43345;SDS011;28937;51.160;4.146;2023-05-07T09:32:00;7.85;;;3.00;;
43345;SDS011;28937;51.160;4.146;2023-05-07T09:34:27;5.07;;;2.55;;
43345;SDS011;28937;51.160;4.146;2023-05-07T09:36:53;6.63;;;2.80;;
43345;SDS011;28937;51.160;4.146;2023-05-07T09:39:19;6.25;;;2.88;;
43345;SDS011;28937;51.160;4.146;2023-05-07T09:41:47;6.15;;;2.92;;
43345;SDS011;28937;51.160;4.146;2023-05-07T09:44:15;7.03;;;3.72;;
43345;SDS011;28937;51.160;4.146;2023-05-07T09:46:42;8.43;;;3.40;;
43345;SDS011;28937;51.160;4.146;2023-05-07T09:49:11;7.38;;;3.55;;
43345;SDS011;28937;51.160;4.146;2023-05-07T09:51:47;7.82;;;4.00;;
43345;SDS011;28937;51.160;4.146;2023-05-07T09:54:15;5.72;;;3.28;;
43345;SDS011;28937;51.160;4.146;2023-05-07T09:56:45;7.72;;;4.53;;
43345;SDS011;28937;51.160;4.146;2023-05-07T09:59:13;7.72;;;4.22;;
43345;SDS011;28937;51.160;4.146;2023-05-07T10:01:41;7.97;;;3.83;;
43345;SDS011;28937;51.160;4.146;2023-05-07T10:04:08;7.20;;;3.67;;
43345;SDS011;28937;51.160;4.146;2023-05-07T10:06:35;6.60;;;3.10;;
43345;SDS011;28937;51.160;4.146;2023-05-07T10:09:02;6.80;;;3.17;;
43345;SDS011;28937;51.160;4.146;2023-05-07T10:11:31;5.43;;;2.25;;
43345;SDS011;28937;51.160;4.146;2023-05-07T10:13:59;9.82;;;3.38;;
43345;SDS011;28937;51.160;4.146;2023-05-07T10:16:30;6.22;;;2.90;;
43345;SDS011;28937;51.160;4.146;2023-05-07T10:18:58;4.78;;;2.13;;
43345;SDS011;28937;51.160;4.146;2023-05-07T10:21:24;4.07;;;1.80;;
43345;SDS011;28937;51.160;4.146;2023-05-07T10:24:16;6.03;;;2.33;;
43345;SDS011;28937;51.160;4.146;2023-05-07T10:26:57;4.68;;;2.80;;
43345;SDS011;28937;51.160;4.146;2023-05-07T10:29:33;5.63;;;3.30;;
43345;SDS011;28937;51.160;4.146;2023-05-07T10:32:19;5.35;;;3.17;;
43345;SDS011;28937;51.160;4.146;2023-05-07T10:34:50;7.07;;;4.05;;
43345;SDS011;28937;51.160;4.146;2023-05-07T10:37:20;7.78;;;3.88;;
43345;SDS011;28937;51.160;4.146;2023-05-07T10:39:46;5.75;;;3.15;;
43345;SDS011;28937;51.160;4.146;2023-05-07T10:42:12;7.78;;;3.78;;
43345;SDS011;28937;51.160;4.146;2023-05-07T10:44:40;5.32;;;3.38;;
43345;SDS011;28937;51.160;4.146;2023-05-07T10:47:09;7.63;;;3.60;;
43345;SDS011;28937;51.160;4.146;2023-05-07T10:49:38;6.10;;;3.35;;
43345;SDS011;28937;51.160;4.146;2023-05-07T10:52:31;6.28;;;2.90;;
43345;SDS011;28937;51.160;4.146;2023-05-07T10:57:42;3.47;;;2.20;;
43345;SDS011;28937;51.160;4.146;2023-05-07T11:05:29;4.87;;;2.60;;
43345;SDS011;28937;51.160;4.146;2023-05-07T11:07:59;4.00;;;2.17;;
43345;SDS011;28937;51.160;4.146;2023-05-07T11:10:48;3.28;;;1.70;;
43345;SDS011;28937;51.160;4.146;2023-05-07T11:13:14;3.80;;;2.03;;
43345;SDS011;28937;51.160;4.146;2023-05-07T11:15:41;4.80;;;2.30;;
43345;SDS011;28937;51.160;4.146;2023-05-07T11:18:11;5.60;;;2.35;;
43345;SDS011;28937;51.160;4.146;2023-05-07T11:28:36;8.38;;;2.65;;
43345;SDS011;28937;51.160;4.146;2023-05-07T11:31:03;4.63;;;1.85;;
43345;SDS011;28937;51.160;4.146;2023-05-07T11:33:32;3.83;;;2.00;;
43345;SDS011;28937;51.160;4.146;2023-05-07T11:35:59;4.22;;;2.00;;
43345;SDS011;28937;51.160;4.146;2023-05-07T11:38:27;5.68;;;2.30;;
43345;SDS011;28937;51.160;4.146;2023-05-07T11:40:55;3.60;;;1.70;;
43345;SDS011;28937;51.160;4.146;2023-05-07T11:43:21;4.68;;;2.45;;
43345;SDS011;28937;51.160;4.146;2023-05-07T11:45:48;4.80;;;2.78;;
43345;SDS011;28937;51.160;4.146;2023-05-07T11:48:14;4.82;;;2.67;;
43345;SDS011;28937;51.160;4.146;2023-05-07T11:53:24;4.97;;;2.70;;
43345;SDS011;28937;51.160;4.146;2023-05-07T11:55:57;4.15;;;2.50;;
43345;SDS011;28937;51.160;4.146;2023-05-07T11:58:23;4.75;;;2.95;;
43345;SDS011;28937;51.160;4.146;2023-05-07T12:00:52;5.00;;;2.55;;
43345;SDS011;28937;51.160;4.146;2023-05-07T12:03:19;4.68;;;2.38;;
43345;SDS011;28937;51.160;4.146;2023-05-07T12:05:46;3.92;;;1.75;;
43345;SDS011;28937;51.160;4.146;2023-05-07T12:08:15;3.75;;;2.00;;
43345;SDS011;28937;51.160;4.146;2023-05-07T12:10:42;5.85;;;2.30;;
43345;SDS011;28937;51.160;4.146;2023-05-07T12:13:15;3.65;;;1.98;;
43345;SDS011;28937;51.160;4.146;2023-05-07T12:15:45;5.85;;;2.55;;
43345;SDS011;28937;51.160;4.146;2023-05-07T12:18:11;3.47;;;1.92;;
43345;SDS011;28937;51.160;4.146;2023-05-07T12:20:38;3.13;;;2.13;;
43345;SDS011;28937;51.160;4.146;2023-05-07T12:23:04;4.78;;;1.98;;
43345;SDS011;28937;51.160;4.146;2023-05-07T12:25:37;4.07;;;1.88;;
43345;SDS011;28937;51.160;4.146;2023-05-07T12:28:05;6.90;;;2.35;;
43345;SDS011;28937;51.160;4.146;2023-05-07T12:30:31;4.22;;;2.17;;
43345;SDS011;28937;51.160;4.146;2023-05-07T12:33:01;4.50;;;2.15;;
43345;SDS011;28937;51.160;4.146;2023-05-07T12:35:28;3.67;;;2.03;;
43345;SDS011;28937;51.160;4.146;2023-05-07T12:38:00;2.85;;;1.67;;
43345;SDS011;28937;51.160;4.146;2023-05-07T12:40:42;3.90;;;1.75;;
43345;SDS011;28937;51.160;4.146;2023-05-07T12:43:27;3.53;;;1.80;;
43345;SDS011;28937;51.160;4.146;2023-05-07T12:45:54;5.25;;;2.20;;
43345;SDS011;28937;51.160;4.146;2023-05-07T12:48:30;3.72;;;1.83;;
43345;SDS011;28937;51.160;4.146;2023-05-07T12:50:58;3.10;;;1.65;;
43345;SDS011;28937;51.160;4.146;2023-05-07T12:53:26;2.47;;;1.30;;
43345;SDS011;28937;51.160;4.146;2023-05-07T12:55:53;3.85;;;1.42;;
43345;SDS011;28937;51.160;4.146;2023-05-07T12:58:22;3.35;;;1.60;;
43345;SDS011;28937;51.160;4.146;2023-05-07T13:00:53;2.78;;;1.13;;
43345;SDS011;28937;51.160;4.146;2023-05-07T13:05:51;3.05;;;1.40;;
43345;SDS011;28937;51.160;4.146;2023-05-07T13:08:28;3.50;;;1.30;;
43345;SDS011;28937;51.160;4.146;2023-05-07T13:10:58;2.28;;;1.05;;
43345;SDS011;28937;51.160;4.146;2023-05-07T13:13:28;3.95;;;1.50;;
43345;SDS011;28937;51.160;4.146;2023-05-07T13:15:59;2.80;;;0.93;;
43345;SDS011;28937;51.160;4.146;2023-05-07T13:18:25;2.65;;;1.05;;
43345;SDS011;28937;51.160;4.146;2023-05-07T13:20:51;4.07;;;1.20;;
43345;SDS011;28937;51.160;4.146;2023-05-07T13:23:17;2.58;;;1.45;;
43345;SDS011;28937;51.160;4.146;2023-05-07T13:25:44;3.42;;;1.13;;
43345;SDS011;28937;51.160;4.146;2023-05-07T13:28:09;3.85;;;1.35;;
43345;SDS011;28937;51.160;4.146;2023-05-07T13:30:35;4.25;;;1.90;;
43345;SDS011;28937;51.160;4.146;2023-05-07T13:33:01;4.40;;;1.80;;
43345;SDS011;28937;51.160;4.146;2023-05-07T13:35:28;4.85;;;2.13;;
43345;SDS011;28937;51.160;4.146;2023-05-07T13:37:53;3.90;;;1.63;;
43345;SDS011;28937;51.160;4.146;2023-05-07T13:40:20;4.35;;;1.77;;
43345;SDS011;28937;51.160;4.146;2023-05-07T13:42:47;4.97;;;2.38;;
43345;SDS011;28937;51.160;4.146;2023-05-07T13:45:13;3.97;;;1.50;;
43345;SDS011;28937;51.160;4.146;2023-05-07T13:47:42;3.88;;;1.73;;
43345;SDS011;28937;51.160;4.146;2023-05-07T13:50:08;3.13;;;1.55;;
43345;SDS011;28937;51.160;4.146;2023-05-07T13:52:36;3.03;;;1.75;;
43345;SDS011;28937;51.160;4.146;2023-05-07T13:55:02;4.55;;;2.08;;
43345;SDS011;28937;51.160;4.146;2023-05-07T13:57:28;3.47;;;1.90;;
43345;SDS011;28937;51.160;4.146;2023-05-07T13:59:53;3.47;;;1.70;;
43345;SDS011;28937;51.160;4.146;2023-05-07T14:02:19;3.88;;;1.55;;
43345;SDS011;28937;51.160;4.146;2023-05-07T14:04:45;4.93;;;1.70;;
43345;SDS011;28937;51.160;4.146;2023-05-07T14:07:10;5.22;;;2.25;;
43345;SDS011;28937;51.160;4.146;2023-05-07T14:09:36;4.70;;;1.50;;
43345;SDS011;28937;51.160;4.146;2023-05-07T14:12:02;7.32;;;1.80;;
43345;SDS011;28937;51.160;4.146;2023-05-07T14:14:28;4.05;;;1.45;;
43345;SDS011;28937;51.160;4.146;2023-05-07T14:16:53;6.05;;;1.38;;
43345;SDS011;28937;51.160;4.146;2023-05-07T14:19:19;3.88;;;1.75;;
43345;SDS011;28937;51.160;4.146;2023-05-07T14:21:44;3.70;;;1.90;;
43345;SDS011;28937;51.160;4.146;2023-05-07T14:24:10;3.40;;;1.40;;
43345;SDS011;28937;51.160;4.146;2023-05-07T14:26:36;3.60;;;1.40;;
43345;SDS011;28937;51.160;4.146;2023-05-07T14:29:02;2.92;;;1.38;;
43345;SDS011;28937;51.160;4.146;2023-05-07T14:31:28;3.30;;;1.40;;
43345;SDS011;28937;51.160;4.146;2023-05-07T14:33:54;2.88;;;2.03;;
43345;SDS011;28937;51.160;4.146;2023-05-07T14:36:19;3.05;;;1.40;;
43345;SDS011;28937;51.160;4.146;2023-05-07T14:38:46;2.83;;;1.35;;
43345;SDS011;28937;51.160;4.146;2023-05-07T14:41:12;4.55;;;1.55;;
43345;SDS011;28937;51.160;4.146;2023-05-07T14:43:38;4.47;;;1.40;;
43345;SDS011;28937;51.160;4.146;2023-05-07T14:46:03;4.50;;;1.70;;
43345;SDS011;28937;51.160;4.146;2023-05-07T14:48:29;3.28;;;1.52;;
43345;SDS011;28937;51.160;4.146;2023-05-07T14:50:55;2.55;;;1.33;;
43345;SDS011;28937;51.160;4.146;2023-05-07T14:53:21;4.40;;;1.50;;
43345;SDS011;28937;51.160;4.146;2023-05-07T14:55:47;2.70;;;1.25;;
43345;SDS011;28937;51.160;4.146;2023-05-07T14:58:13;4.95;;;1.38;;
43345;SDS011;28937;51.160;4.146;2023-05-07T15:00:40;3.65;;;1.40;;